Hmpden Sydney, Virginia
Current Conditions -  °F | °C
As of 5:35 AM on Thursday 18 Dec 2014 (Local Time) from KFVX Reporting Station
Clear Clear  
Wind Chill: 30°   Ceiling: Unl
Heat Index: 30°   Visibility: 10mi
Dew Point: 24°   Wind: 0mph
Humidity: 79%   Direction: NA
Pressure: 30.13"   Gusts: NA
Location:  37.2408°N, 78.4578°W
Report Text: KFVX 181035Z AUTO 00000KT 10SM CLR M01/M04 A3013 RMK AO2 T10111044
Loading
Personal Weather Stations






























Interactive Weather Map New forecast layout! Learn more

10-Day Weather Forecast

Advertisements
Track Severe Weather on mobile